Time;durP1;ratioP1;P1;durP2;ratioP2;P2;SDS_P1;SDS_P2;PMS_P1;PMS_P2;Temp;Humidity;BMP_temperature;BMP_pressure;BME280_temperature;BME280_humidity;BME280_pressure;Samples;Min_cycle;Max_cycle;Signal;HPM_P1;HPM_P2
2023/05/08 00:01:15;;;;;;;0.40;0.40;;;;;;;;;;5042285;28;20706;-82
2023/05/08 00:03:41;;;;;;;0.33;0.33;;;;;;;;;;5041225;28;20197;-82
2023/05/08 00:06:07;;;;;;;0.50;0.50;;;;;;;;;;5041588;28;20191;-82
2023/05/08 00:08:33;;;;;;;0.50;0.50;;;;;;;;;;5042079;28;20530;-82
2023/05/08 00:10:59;;;;;;;0.40;0.40;;;;;;;;;;5042647;28;20179;-82
2023/05/08 00:13:25;;;;;;;0.50;0.50;;;;;;;;;;5041634;28;20172;-82
2023/05/08 00:15:51;;;;;;;0.40;0.40;;;;;;;;;;5042082;28;20259;-83
2023/05/08 00:18:17;;;;;;;0.40;0.40;;;;;;;;;;5056399;28;20184;-82
2023/05/08 00:20:43;;;;;;;0.37;0.37;;;;;;;;;;5041095;28;20191;-82
2023/05/08 00:23:09;;;;;;;0.40;0.40;;;;;;;;;;5041990;28;20184;-82
2023/05/08 00:25:35;;;;;;;0.40;0.40;;;;;;;;;;5042061;28;20199;-82
2023/05/08 00:28:01;;;;;;;0.40;0.40;;;;;;;;;;5041607;28;20183;-82
2023/05/08 00:30:27;;;;;;;0.40;0.40;;;;;;;;;;5041071;28;20175;-82
2023/05/08 00:32:53;;;;;;;0.40;0.40;;;;;;;;;;5041473;28;20235;-82
2023/05/08 00:35:19;;;;;;;0.50;0.50;;;;;;;;;;5041808;28;20273;-82
2023/05/08 00:37:45;;;;;;;0.40;0.40;;;;;;;;;;5041467;28;20216;-82
2023/05/08 00:40:11;;;;;;;0.40;0.40;;;;;;;;;;5041496;28;20561;-84
2023/05/08 00:42:37;;;;;;;0.60;0.60;;;;;;;;;;5040479;28;20176;-82
2023/05/08 00:45:03;;;;;;;0.50;0.50;;;;;;;;;;5042757;28;20693;-83
2023/05/08 00:47:31;;;;;;;0.50;0.50;;;;;;;;;;5041988;28;20175;-83
2023/05/08 00:49:57;;;;;;;0.43;0.43;;;;;;;;;;5042311;28;20176;-82
2023/05/08 00:52:23;;;;;;;0.40;0.40;;;;;;;;;;5041620;28;20665;-82
2023/05/08 00:54:49;;;;;;;0.50;0.50;;;;;;;;;;5040496;28;20199;-82
2023/05/08 00:57:16;;;;;;;0.50;0.50;;;;;;;;;;5041044;28;20298;-82
2023/05/08 00:59:42;;;;;;;0.40;0.40;;;;;;;;;;5039521;28;20291;-81
2023/05/08 01:02:08;;;;;;;0.40;0.40;;;;;;;;;;5040470;28;20267;-81
2023/05/08 01:04:36;;;;;;;0.40;0.40;;;;;;;;;;5039424;28;20701;-82
2023/05/08 01:07:02;;;;;;;0.47;0.47;;;;;;;;;;5040032;28;20187;-81
2023/05/08 01:09:29;;;;;;;0.50;0.50;;;;;;;;;;5041256;28;20176;-81
2023/05/08 01:12:11;;;;;;;0.43;0.43;;;;;;;;;;5040833;28;20262;-81
2023/05/08 01:14:40;;;;;;;0.40;0.40;;;;;;;;;;5040646;28;20218;-82
2023/05/08 01:17:06;;;;;;;0.40;0.40;;;;;;;;;;5040442;28;20211;-81
2023/05/08 01:19:54;;;;;;;0.53;0.53;;;;;;;;;;5040789;28;20178;-81
2023/05/08 01:22:23;;;;;;;0.40;0.40;;;;;;;;;;5039757;28;20172;-82
2023/05/08 01:25:12;;;;;;;0.40;0.40;;;;;;;;;;5039665;28;20188;-81
2023/05/08 01:27:53;;;;;;;0.40;0.40;;;;;;;;;;5040937;28;20182;-81
2023/05/08 01:30:38;;;;;;;0.40;0.40;;;;;;;;;;5041676;28;20609;-82
2023/05/08 01:33:27;;;;;;;0.43;0.43;;;;;;;;;;5040358;28;20176;-81
2023/05/08 01:35:57;;;;;;;0.47;0.47;;;;;;;;;;5032761;28;20180;-82
2023/05/08 01:38:30;;;;;;;0.53;0.53;;;;;;;;;;5040824;28;20207;-81
2023/05/08 01:41:01;;;;;;;0.50;0.50;;;;;;;;;;5041398;28;20262;-81
2023/05/08 01:43:30;;;;;;;0.57;0.57;;;;;;;;;;5040938;28;20180;-81
2023/05/08 01:45:58;;;;;;;0.50;0.50;;;;;;;;;;5041655;28;20179;-82
2023/05/08 01:48:27;;;;;;;0.40;0.40;;;;;;;;;;5040916;28;20172;-81
2023/05/08 01:50:58;;;;;;;0.50;0.50;;;;;;;;;;5040483;28;20768;-81
2023/05/08 01:53:27;;;;;;;0.50;0.50;;;;;;;;;;5040652;28;20187;-82
2023/05/08 01:55:56;;;;;;;0.40;0.40;;;;;;;;;;5040654;28;20252;-82
2023/05/08 01:58:23;;;;;;;0.40;0.40;;;;;;;;;;5040553;28;20566;-82
2023/05/08 02:00:50;;;;;;;0.40;0.40;;;;;;;;;;5040463;28;20176;-81
2023/05/08 02:03:17;;;;;;;0.50;0.50;;;;;;;;;;5039381;28;20175;-81
2023/05/08 02:05:43;;;;;;;0.40;0.40;;;;;;;;;;5041303;28;20195;-81
2023/05/08 02:08:11;;;;;;;0.33;0.33;;;;;;;;;;5040731;28;20175;-81
2023/05/08 02:10:37;;;;;;;0.50;0.50;;;;;;;;;;5040954;28;20178;-81
2023/05/08 02:13:04;;;;;;;0.60;0.60;;;;;;;;;;5040076;28;20195;-81
2023/05/08 02:15:34;;;;;;;0.50;0.50;;;;;;;;;;5039641;28;20241;-81
2023/05/08 02:18:01;;;;;;;0.40;0.40;;;;;;;;;;5040685;28;20215;-82
2023/05/08 02:20:28;;;;;;;0.50;0.50;;;;;;;;;;5041085;28;20211;-81
2023/05/08 02:22:54;;;;;;;0.47;0.47;;;;;;;;;;5041014;28;20179;-81
2023/05/08 02:25:21;;;;;;;0.40;0.40;;;;;;;;;;5040803;28;20615;-81
2023/05/08 02:27:48;;;;;;;0.57;0.57;;;;;;;;;;5040875;28;20199;-81
2023/05/08 02:30:16;;;;;;;0.50;0.50;;;;;;;;;;5040365;28;20258;-81
2023/05/08 02:32:46;;;;;;;0.50;0.50;;;;;;;;;;5038586;28;20566;-81
2023/05/08 02:35:12;;;;;;;0.30;0.30;;;;;;;;;;5038747;28;20581;-81
2023/05/08 02:37:40;;;;;;;0.50;0.50;;;;;;;;;;5039460;28;20212;-81
2023/05/08 02:40:08;;;;;;;0.40;0.40;;;;;;;;;;5053977;28;20237;-81
2023/05/08 02:42:34;;;;;;;0.50;0.50;;;;;;;;;;5038800;28;20172;-81
2023/05/08 02:45:00;;;;;;;0.50;0.50;;;;;;;;;;5040262;28;20222;-81
2023/05/08 02:47:45;;;;;;;0.40;0.40;;;;;;;;;;5040388;28;20686;-82
2023/05/08 02:50:11;;;;;;;0.47;0.47;;;;;;;;;;5041065;28;20168;-81
2023/05/08 02:52:43;;;;;;;0.50;0.50;;;;;;;;;;5040097;28;20179;-81
2023/05/08 02:55:21;;;;;;;0.47;0.47;;;;;;;;;;5040579;28;20678;-81
2023/05/08 02:57:51;;;;;;;0.50;0.50;;;;;;;;;;5040676;28;20225;-81
2023/05/08 03:00:21;;;;;;;0.47;0.47;;;;;;;;;;5040020;28;20589;-81
2023/05/08 03:02:49;;;;;;;0.40;0.40;;;;;;;;;;5041211;28;20259;-81
2023/05/08 03:05:17;;;;;;;0.40;0.40;;;;;;;;;;5041770;28;20244;-81
2023/05/08 03:07:44;;;;;;;0.53;0.53;;;;;;;;;;5040570;28;20183;-82
2023/05/08 03:10:15;;;;;;;0.50;0.50;;;;;;;;;;5040789;28;20176;-82
2023/05/08 03:12:44;;;;;;;0.50;0.50;;;;;;;;;;5042206;28;20168;-82
2023/05/08 03:15:13;;;;;;;0.40;0.40;;;;;;;;;;5042979;28;20478;-82
2023/05/08 03:17:41;;;;;;;0.30;0.30;;;;;;;;;;5042196;28;20215;-82
2023/05/08 03:20:09;;;;;;;0.40;0.40;;;;;;;;;;5042569;28;20203;-82
2023/05/08 03:22:36;;;;;;;0.57;0.57;;;;;;;;;;5040931;28;20762;-81
2023/05/08 03:25:03;;;;;;;0.50;0.50;;;;;;;;;;5040770;28;20269;-82
2023/05/08 03:27:30;;;;;;;0.60;0.60;;;;;;;;;;5040472;28;20196;-82
2023/05/08 03:29:57;;;;;;;0.50;0.50;;;;;;;;;;5040072;28;20501;-82
2023/05/08 03:32:24;;;;;;;0.40;0.40;;;;;;;;;;5039812;28;20619;-82
2023/05/08 03:34:50;;;;;;;0.40;0.40;;;;;;;;;;5040949;28;20196;-81
2023/05/08 03:37:17;;;;;;;0.50;0.50;;;;;;;;;;5041827;28;20223;-82
2023/05/08 03:39:43;;;;;;;0.37;0.37;;;;;;;;;;5039054;28;20672;-81
2023/05/08 03:42:09;;;;;;;0.50;0.50;;;;;;;;;;5039818;28;20643;-83
2023/05/08 03:44:35;;;;;;;0.50;0.50;;;;;;;;;;5039084;28;20282;-82
2023/05/08 03:47:02;;;;;;;0.50;0.50;;;;;;;;;;5040106;28;20248;-81
2023/05/08 03:49:29;;;;;;;0.50;0.50;;;;;;;;;;5037561;28;20175;-83
2023/05/08 03:51:56;;;;;;;0.50;0.50;;;;;;;;;;5037268;28;20241;-82
2023/05/08 03:54:26;;;;;;;0.40;0.40;;;;;;;;;;5036102;28;20365;-80
2023/05/08 03:56:53;;;;;;;0.60;0.60;;;;;;;;;;5037176;28;20273;-81
2023/05/08 03:59:22;;;;;;;0.30;0.30;;;;;;;;;;5037326;28;20172;-80
2023/05/08 04:01:49;;;;;;;0.60;0.60;;;;;;;;;;5036680;28;20296;-81
2023/05/08 04:04:24;;;;;;;0.40;0.40;;;;;;;;;;5035608;28;20242;-80
2023/05/08 04:06:51;;;;;;;0.50;0.50;;;;;;;;;;5035099;28;20669;-81
2023/05/08 04:09:19;;;;;;;0.40;0.40;;;;;;;;;;5034498;28;20669;-81
2023/05/08 04:11:57;;;;;;;0.50;0.50;;;;;;;;;;5034854;28;20270;-81
2023/05/08 04:14:25;;;;;;;0.47;0.47;;;;;;;;;;5034735;28;20200;-83
2023/05/08 04:16:53;;;;;;;0.50;0.50;;;;;;;;;;5035013;28;20207;-84
2023/05/08 04:19:23;;;;;;;0.50;0.50;;;;;;;;;;5035706;28;20186;-82
2023/05/08 04:21:50;;;;;;;0.30;0.30;;;;;;;;;;5034901;28;20562;-81
2023/05/08 04:24:16;;;;;;;0.50;0.50;;;;;;;;;;5034414;28;20254;-83
2023/05/08 04:26:44;;;;;;;0.50;0.50;;;;;;;;;;5034825;28;20196;-81
2023/05/08 04:29:10;;;;;;;0.40;0.40;;;;;;;;;;5035476;28;20176;-81
2023/05/08 04:31:36;;;;;;;0.50;0.50;;;;;;;;;;5036495;28;20176;-81
2023/05/08 04:34:03;;;;;;;0.43;0.43;;;;;;;;;;5035614;28;20337;-81
2023/05/08 04:36:30;;;;;;;0.50;0.50;;;;;;;;;;5036182;28;20215;-82
2023/05/08 04:38:56;;;;;;;0.50;0.50;;;;;;;;;;5035951;28;20275;-82
2023/05/08 04:41:22;;;;;;;0.50;0.50;;;;;;;;;;5036087;28;20212;-81
2023/05/08 04:43:48;;;;;;;0.40;0.40;;;;;;;;;;5041794;28;20196;-81
2023/05/08 04:46:14;;;;;;;0.40;0.40;;;;;;;;;;5039978;28;20171;-82
2023/05/08 04:48:40;;;;;;;0.40;0.40;;;;;;;;;;5039387;28;20179;-81
2023/05/08 04:51:06;;;;;;;0.40;0.40;;;;;;;;;;5040210;28;20172;-82
2023/05/08 04:53:32;;;;;;;0.40;0.40;;;;;;;;;;5039524;28;20549;-83
2023/05/08 04:55:58;;;;;;;0.40;0.40;;;;;;;;;;5039589;28;20187;-83
2023/05/08 04:58:24;;;;;;;0.40;0.40;;;;;;;;;;5039880;28;20186;-83
2023/05/08 05:00:51;;;;;;;0.40;0.40;;;;;;;;;;5040086;28;20199;-83
2023/05/08 05:03:17;;;;;;;0.50;0.50;;;;;;;;;;5039178;28;20182;-84
2023/05/08 05:05:43;;;;;;;0.40;0.40;;;;;;;;;;5040171;28;20274;-83
2023/05/08 05:08:08;;;;;;;0.47;0.47;;;;;;;;;;5039746;28;20225;-84
2023/05/08 05:10:34;;;;;;;0.40;0.40;;;;;;;;;;5040780;28;20838;-84
2023/05/08 05:13:00;;;;;;;0.40;0.40;;;;;;;;;;5041326;28;20599;-83
2023/05/08 05:15:26;;;;;;;0.30;0.30;;;;;;;;;;5052975;28;20207;-83
2023/05/08 05:17:52;;;;;;;0.40;0.40;;;;;;;;;;5051884;28;20270;-82
2023/05/08 05:20:18;;;;;;;0.50;0.50;;;;;;;;;;5051346;28;20682;-80
2023/05/08 05:22:44;;;;;;;0.30;0.30;;;;;;;;;;5048044;28;20539;-82
2023/05/08 05:25:11;;;;;;;0.37;0.37;;;;;;;;;;5051936;28;20188;-80
2023/05/08 05:29:50;;;;;;;0.33;0.33;;;;;;;;;;5114767;27;20495;-81
2023/05/08 05:32:16;;;;;;;0.40;0.40;;;;;;;;;;5114623;28;20264;-80
2023/05/08 05:34:42;;;;;;;0.50;0.50;;;;;;;;;;5114242;28;20415;-81
2023/05/08 05:37:08;;;;;;;0.50;0.50;;;;;;;;;;5114267;28;20177;-79
2023/05/08 05:39:36;;;;;;;0.50;0.50;;;;;;;;;;5115264;28;20173;-81
2023/05/08 05:42:02;;;;;;;0.60;0.60;;;;;;;;;;5114741;28;20192;-81
2023/05/08 05:44:28;;;;;;;0.50;0.50;;;;;;;;;;5115039;28;20193;-81
2023/05/08 05:46:54;;;;;;;0.50;0.50;;;;;;;;;;5114834;28;20181;-80
2023/05/08 05:49:20;;;;;;;0.60;0.60;;;;;;;;;;5115419;28;20208;-80
2023/05/08 05:51:46;;;;;;;0.50;0.50;;;;;;;;;;5115136;28;20241;-81
2023/05/08 05:54:13;;;;;;;0.60;0.60;;;;;;;;;;5114912;28;20715;-81
2023/05/08 05:56:39;;;;;;;0.50;0.50;;;;;;;;;;5115730;28;20173;-81
2023/05/08 05:59:05;;;;;;;0.47;0.47;;;;;;;;;;5115621;28;20264;-81
2023/05/08 06:01:31;;;;;;;0.50;0.50;;;;;;;;;;5115213;28;20207;-80
2023/05/08 06:03:57;;;;;;;0.60;0.60;;;;;;;;;;5114900;28;20223;-80
2023/05/08 06:06:23;;;;;;;0.60;0.60;;;;;;;;;;5115416;28;20173;-81
2023/05/08 06:08:49;;;;;;;0.50;0.50;;;;;;;;;;5115393;28;20217;-79
2023/05/08 06:11:15;;;;;;;0.50;0.50;;;;;;;;;;5116330;28;20195;-80
2023/05/08 06:13:42;;;;;;;0.40;0.40;;;;;;;;;;5110548;28;20208;-81
2023/05/08 06:16:08;;;;;;;0.57;0.57;;;;;;;;;;5106087;28;20624;-81
2023/05/08 06:18:34;;;;;;;0.50;0.50;;;;;;;;;;5101271;28;20170;-80
2023/05/08 06:21:00;;;;;;;0.47;0.47;;;;;;;;;;5104564;28;20174;-81
2023/05/08 06:23:26;;;;;;;0.70;0.70;;;;;;;;;;5103978;28;20173;-80
2023/05/08 06:25:53;;;;;;;0.60;0.60;;;;;;;;;;5105773;28;20165;-81
2023/05/08 06:28:21;;;;;;;0.37;0.37;;;;;;;;;;5105403;28;20209;-80
2023/05/08 06:30:47;;;;;;;0.50;0.50;;;;;;;;;;5106113;28;20188;-81
2023/05/08 06:33:13;;;;;;;0.50;0.50;;;;;;;;;;5120659;28;20173;-79
2023/05/08 06:35:39;;;;;;;0.50;0.50;;;;;;;;;;5119886;28;20173;-80
2023/05/08 06:38:05;;;;;;;0.50;0.50;;;;;;;;;;5119301;28;20177;-80
2023/05/08 06:40:31;;;;;;;0.70;0.70;;;;;;;;;;5109857;28;20305;-81
2023/05/08 06:42:57;;;;;;;0.60;0.60;;;;;;;;;;5105027;28;20202;-79
2023/05/08 06:45:23;;;;;;;0.50;0.50;;;;;;;;;;5105214;28;20194;-79
2023/05/08 06:47:49;;;;;;;0.60;0.60;;;;;;;;;;5107685;28;20206;-78
2023/05/08 06:50:15;;;;;;;0.60;0.60;;;;;;;;;;5105448;28;20219;-81
2023/05/08 06:52:41;;;;;;;0.50;0.50;;;;;;;;;;5103204;28;20206;-78
2023/05/08 06:55:07;;;;;;;0.40;0.40;;;;;;;;;;5105879;28;20221;-79
2023/05/08 06:57:33;;;;;;;0.50;0.50;;;;;;;;;;5104890;28;20196;-79
2023/05/08 06:59:59;;;;;;;0.60;0.60;;;;;;;;;;5101829;28;20171;-80
2023/05/08 07:02:25;;;;;;;0.70;0.70;;;;;;;;;;5103990;28;20787;-81
2023/05/08 07:04:51;;;;;;;0.63;0.63;;;;;;;;;;5105386;28;20269;-80
2023/05/08 07:07:17;;;;;;;0.50;0.50;;;;;;;;;;5100940;28;20300;-79
2023/05/08 07:09:43;;;;;;;0.60;0.60;;;;;;;;;;5097225;28;20243;-80
2023/05/08 07:12:09;;;;;;;0.60;0.60;;;;;;;;;;5097810;28;20560;-79
2023/05/08 07:14:35;;;;;;;0.60;0.60;;;;;;;;;;5097853;28;20190;-80
2023/05/08 07:17:08;;;;;;;0.60;0.60;;;;;;;;;;5097582;28;20182;-80
2023/05/08 07:19:37;;;;;;;0.60;0.60;;;;;;;;;;5098268;28;20174;-80
2023/05/08 07:22:04;;;;;;;0.40;0.40;;;;;;;;;;5096864;28;20202;-80
2023/05/08 07:24:29;;;;;;;0.40;0.40;;;;;;;;;;5096906;28;20735;-80
2023/05/08 07:26:56;;;;;;;0.50;0.50;;;;;;;;;;5097813;28;20231;-80
2023/05/08 07:29:22;;;;;;;0.50;0.50;;;;;;;;;;5097395;28;20223;-79
2023/05/08 07:31:48;;;;;;;0.60;0.60;;;;;;;;;;5096795;28;20645;-80
2023/05/08 07:34:14;;;;;;;0.60;0.60;;;;;;;;;;5099088;28;20204;-81
2023/05/08 07:36:40;;;;;;;0.50;0.50;;;;;;;;;;5098032;28;20237;-81
2023/05/08 07:39:06;;;;;;;0.60;0.60;;;;;;;;;;5097850;28;20197;-82
2023/05/08 07:41:31;;;;;;;0.60;0.60;;;;;;;;;;5098139;28;20174;-82
2023/05/08 07:43:57;;;;;;;0.50;0.50;;;;;;;;;;5097687;28;20354;-81
2023/05/08 07:46:24;;;;;;;0.60;0.60;;;;;;;;;;5097241;28;20177;-82
2023/05/08 07:48:50;;;;;;;0.50;0.50;;;;;;;;;;5097894;28;20210;-81
2023/05/08 07:51:16;;;;;;;0.50;0.50;;;;;;;;;;5096495;28;20193;-81
2023/05/08 07:53:42;;;;;;;0.50;0.50;;;;;;;;;;5097049;28;20205;-80
2023/05/08 07:56:08;;;;;;;0.40;0.40;;;;;;;;;;5096966;28;20716;-80
2023/05/08 07:58:34;;;;;;;0.60;0.60;;;;;;;;;;5097620;28;20181;-80
2023/05/08 08:01:00;;;;;;;0.50;0.50;;;;;;;;;;5098165;28;20170;-81
2023/05/08 08:03:26;;;;;;;0.57;0.57;;;;;;;;;;5097873;28;20234;-81
2023/05/08 08:05:54;;;;;;;0.50;0.50;;;;;;;;;;5098116;28;20280;-81
2023/05/08 08:08:20;;;;;;;0.70;0.70;;;;;;;;;;5098505;28;20692;-82
2023/05/08 08:10:46;;;;;;;0.60;0.60;;;;;;;;;;5101749;28;20177;-82
2023/05/08 08:13:12;;;;;;;0.60;0.60;;;;;;;;;;5096307;28;20652;-80
2023/05/08 08:15:38;;;;;;;0.60;0.60;;;;;;;;;;5096569;28;20239;-79
2023/05/08 08:18:04;;;;;;;0.50;0.50;;;;;;;;;;5096483;28;20170;-80
2023/05/08 08:20:30;;;;;;;0.50;0.50;;;;;;;;;;5097152;28;20246;-79
2023/05/08 08:22:56;;;;;;;0.47;0.47;;;;;;;;;;5097679;28;20177;-79
2023/05/08 08:25:23;;;;;;;0.50;0.50;;;;;;;;;;5096749;28;20205;-79
2023/05/08 08:27:49;;;;;;;0.60;0.60;;;;;;;;;;5089907;28;20214;-79
2023/05/08 08:30:15;;;;;;;0.33;0.33;;;;;;;;;;5093630;28;20181;-80
2023/05/08 08:32:41;;;;;;;0.50;0.50;;;;;;;;;;5091629;28;20209;-80
2023/05/08 08:35:07;;;;;;;0.50;0.50;;;;;;;;;;5090130;28;20228;-81
2023/05/08 08:37:33;;;;;;;0.60;0.60;;;;;;;;;;5096549;28;20516;-81
2023/05/08 08:40:00;;;;;;;0.53;0.53;;;;;;;;;;5095325;28;20177;-81
2023/05/08 08:42:26;;;;;;;0.50;0.50;;;;;;;;;;5091109;28;20182;-79
2023/05/08 08:44:52;;;;;;;0.47;0.47;;;;;;;;;;5095271;28;20692;-81
2023/05/08 08:47:19;;;;;;;0.50;0.50;;;;;;;;;;5096147;28;20170;-81
2023/05/08 08:49:48;;;;;;;0.50;0.50;;;;;;;;;;5095456;28;20273;-79
2023/05/08 08:52:27;;;;;;;0.53;0.53;;;;;;;;;;5094684;28;20221;-79
2023/05/08 08:54:55;;;;;;;0.40;0.40;;;;;;;;;;5093871;28;20202;-79
2023/05/08 08:57:21;;;;;;;0.40;0.40;;;;;;;;;;5094368;28;20178;-81
2023/05/08 08:59:47;;;;;;;0.40;0.40;;;;;;;;;;5094358;28;20641;-80
2023/05/08 09:02:16;;;;;;;0.50;0.50;;;;;;;;;;5094137;28;20189;-79
2023/05/08 09:04:42;;;;;;;0.40;0.40;;;;;;;;;;5094695;28;20201;-80
2023/05/08 09:07:08;;;;;;;0.50;0.50;;;;;;;;;;5094652;28;20176;-80
2023/05/08 09:09:36;;;;;;;0.60;0.60;;;;;;;;;;5093904;28;20217;-80
2023/05/08 09:12:02;;;;;;;0.47;0.47;;;;;;;;;;5094103;28;20265;-81
2023/05/08 09:14:28;;;;;;;0.40;0.40;;;;;;;;;;5093180;28;20201;-81
2023/05/08 09:16:54;;;;;;;0.40;0.40;;;;;;;;;;5094677;28;20177;-81
2023/05/08 09:19:20;;;;;;;0.40;0.40;;;;;;;;;;5094079;28;20178;-80
2023/05/08 09:21:48;;;;;;;0.40;0.40;;;;;;;;;;5093499;28;20189;-79
2023/05/08 09:24:14;;;;;;;0.40;0.40;;;;;;;;;;5093524;28;20200;-78
2023/05/08 09:26:40;;;;;;;0.40;0.40;;;;;;;;;;5078738;28;20178;-80
2023/05/08 09:29:10;;;;;;;0.40;0.40;;;;;;;;;;5094093;28;20217;-80
2023/05/08 09:31:38;;;;;;;0.37;0.37;;;;;;;;;;5093912;28;20265;-81
2023/05/08 09:34:05;;;;;;;0.33;0.33;;;;;;;;;;5093939;28;20202;-81
2023/05/08 09:36:33;;;;;;;0.30;0.30;;;;;;;;;;5093910;28;20621;-81
2023/05/08 09:38:59;;;;;;;0.30;0.30;;;;;;;;;;5094130;28;20174;-81
2023/05/08 09:41:25;;;;;;;0.40;0.40;;;;;;;;;;5093833;28;20196;-82
2023/05/08 09:44:02;;;;;;;0.30;0.30;;;;;;;;;;5093644;28;20288;-81
2023/05/08 09:46:28;;;;;;;0.40;0.40;;;;;;;;;;5093997;28;20261;-81
2023/05/08 09:48:58;;;;;;;0.40;0.40;;;;;;;;;;5089545;28;20333;-79
2023/05/08 09:51:25;;;;;;;0.30;0.30;;;;;;;;;;5081144;28;20181;-80
2023/05/08 09:53:55;;;;;;;0.40;0.40;;;;;;;;;;5086212;28;20201;-80
2023/05/08 09:56:34;;;;;;;0.40;0.40;;;;;;;;;;5092591;28;20272;-79
2023/05/08 09:59:01;;;;;;;0.40;0.40;;;;;;;;;;5092737;28;20177;-82
2023/05/08 10:01:32;;;;;;;0.30;0.30;;;;;;;;;;5093424;28;20263;-80
2023/05/08 10:03:58;;;;;;;0.30;0.30;;;;;;;;;;5093276;28;20327;-80
2023/05/08 10:06:24;;;;;;;0.30;0.30;;;;;;;;;;5093440;28;20585;-79
2023/05/08 10:09:05;;;;;;;0.40;0.40;;;;;;;;;;5093987;28;20205;-81
2023/05/08 10:11:32;;;;;;;0.40;0.40;;;;;;;;;;5086896;28;20192;-81
2023/05/08 10:13:58;;;;;;;0.53;0.53;;;;;;;;;;5093034;28;20201;-82
2023/05/08 10:16:26;;;;;;;0.50;0.50;;;;;;;;;;5096787;28;20185;-82
2023/05/08 10:18:56;;;;;;;0.37;0.37;;;;;;;;;;5097637;28;20185;-80
2023/05/08 10:21:23;;;;;;;0.40;0.40;;;;;;;;;;5097325;28;20640;-81
2023/05/08 10:23:50;;;;;;;0.30;0.30;;;;;;;;;;5097662;28;20284;-82
2023/05/08 10:26:21;;;;;;;0.50;0.50;;;;;;;;;;5098561;28;20207;-81
2023/05/08 10:29:05;;;;;;;0.40;0.40;;;;;;;;;;5097979;28;20619;-82
2023/05/08 10:31:33;;;;;;;0.43;0.43;;;;;;;;;;5097926;28;20180;-81
2023/05/08 10:34:03;;;;;;;0.30;0.30;;;;;;;;;;5097540;28;20216;-81
2023/05/08 10:36:31;;;;;;;0.30;0.30;;;;;;;;;;5097736;28;20181;-82
2023/05/08 10:38:57;;;;;;;0.30;0.30;;;;;;;;;;5098288;28;20193;-81
2023/05/08 10:41:24;;;;;;;0.40;0.40;;;;;;;;;;5098257;28;20273;-81
2023/05/08 10:43:50;;;;;;;0.40;0.40;;;;;;;;;;5097785;28;20236;-82
2023/05/08 10:46:20;;;;;;;0.30;0.30;;;;;;;;;;5098984;28;20200;-81
2023/05/08 10:48:46;;;;;;;0.40;0.40;;;;;;;;;;5098510;28;20780;-80
2023/05/08 10:51:16;;;;;;;0.40;0.40;;;;;;;;;;5097873;28;20202;-81
2023/05/08 10:53:51;;;;;;;0.40;0.40;;;;;;;;;;5097253;28;20679;-82
2023/05/08 10:56:17;;;;;;;0.30;0.30;;;;;;;;;;5097784;28;20694;-80
2023/05/08 10:58:43;;;;;;;0.40;0.40;;;;;;;;;;5097566;28;20178;-81
2023/05/08 11:01:09;;;;;;;0.40;0.40;;;;;;;;;;5097673;28;20520;-80
2023/05/08 11:03:40;;;;;;;0.40;0.40;;;;;;;;;;5098515;28;20193;-81
2023/05/08 11:06:06;;;;;;;0.30;0.30;;;;;;;;;;5098482;28;20170;-83
2023/05/08 11:08:32;;;;;;;0.40;0.40;;;;;;;;;;5097517;28;20217;-82
2023/05/08 11:11:01;;;;;;;0.40;0.40;;;;;;;;;;5098678;28;20198;-81
2023/05/08 11:13:44;;;;;;;0.30;0.30;;;;;;;;;;5098014;28;20174;-82
2023/05/08 11:16:10;;;;;;;0.40;0.40;;;;;;;;;;5098229;28;20256;-81
2023/05/08 11:18:36;;;;;;;0.30;0.30;;;;;;;;;;5098994;28;20543;-83
2023/05/08 11:21:04;;;;;;;0.40;0.40;;;;;;;;;;5099374;28;20177;-81
2023/05/08 11:23:31;;;;;;;0.40;0.40;;;;;;;;;;5097300;28;20182;-81
2023/05/08 11:26:00;;;;;;;0.30;0.30;;;;;;;;;;5098669;28;20177;-81
2023/05/08 11:28:26;;;;;;;0.37;0.37;;;;;;;;;;5098290;28;20217;-81
2023/05/08 11:30:56;;;;;;;0.30;0.30;;;;;;;;;;5099554;28;20190;-82
2023/05/08 11:33:23;;;;;;;0.40;0.40;;;;;;;;;;5097889;28;20184;-83
2023/05/08 11:35:49;;;;;;;0.40;0.40;;;;;;;;;;5098267;28;20174;-80
2023/05/08 11:38:18;;;;;;;0.30;0.30;;;;;;;;;;5097906;28;20174;-82
2023/05/08 11:40:44;;;;;;;0.40;0.40;;;;;;;;;;5098316;28;20227;-80
2023/05/08 11:43:25;;;;;;;0.20;0.20;;;;;;;;;;5097123;28;20189;-83
2023/05/08 11:45:51;;;;;;;0.37;0.37;;;;;;;;;;5097874;28;20203;-81
2023/05/08 11:48:18;;;;;;;0.40;0.40;;;;;;;;;;5098386;28;20349;-83
2023/05/08 11:50:45;;;;;;;0.30;0.30;;;;;;;;;;5097153;28;20207;-82
2023/05/08 11:53:11;;;;;;;0.40;0.40;;;;;;;;;;5081293;28;20238;-82
2023/05/08 11:55:37;;;;;;;0.40;0.40;;;;;;;;;;5084691;28;20267;-84
2023/05/08 11:58:11;;;;;;;0.30;0.30;;;;;;;;;;5089159;28;20471;-82
2023/05/08 12:00:40;;;;;;;0.30;0.30;;;;;;;;;;5085760;28;20170;-83
2023/05/08 12:03:07;;;;;;;0.40;0.40;;;;;;;;;;5084000;28;20180;-83
2023/05/08 12:05:33;;;;;;;0.30;0.30;;;;;;;;;;5086488;28;20210;-82
2023/05/08 12:07:59;;;;;;;0.30;0.30;;;;;;;;;;5076574;28;20221;-82
2023/05/08 12:10:25;;;;;;;0.30;0.30;;;;;;;;;;5076590;28;20192;-82
2023/05/08 12:12:51;;;;;;;0.40;0.40;;;;;;;;;;5076497;28;20629;-81
2023/05/08 12:15:17;;;;;;;0.30;0.30;;;;;;;;;;5076766;28;20225;-83
2023/05/08 12:17:43;;;;;;;0.40;0.40;;;;;;;;;;5076592;28;20166;-82
2023/05/08 12:20:13;;;;;;;0.40;0.40;;;;;;;;;;5076521;28;20671;-81
2023/05/08 12:22:39;;;;;;;0.33;0.33;;;;;;;;;;5075312;28;20178;-81
2023/05/08 12:25:07;;;;;;;0.40;0.40;;;;;;;;;;5076524;28;20199;-80
2023/05/08 12:27:33;;;;;;;0.40;0.40;;;;;;;;;;5076881;28;20308;-80
2023/05/08 12:29:59;;;;;;;0.37;0.37;;;;;;;;;;5076701;28;20634;-81
2023/05/08 12:32:25;;;;;;;0.30;0.30;;;;;;;;;;5076449;28;20187;-84
2023/05/08 12:34:51;;;;;;;0.40;0.40;;;;;;;;;;5075363;28;20233;-82
2023/05/08 12:37:26;;;;;;;0.30;0.30;;;;;;;;;;5076196;28;20543;-83
2023/05/08 12:39:52;;;;;;;0.30;0.30;;;;;;;;;;5076325;28;20201;-80
2023/05/08 12:42:18;;;;;;;0.30;0.30;;;;;;;;;;5076058;28;20208;-81
2023/05/08 12:44:49;;;;;;;0.30;0.30;;;;;;;;;;5075461;28;20243;-84
2023/05/08 12:47:18;;;;;;;0.30;0.30;;;;;;;;;;5076170;28;20703;-83
2023/05/08 12:49:47;;;;;;;0.40;0.40;;;;;;;;;;5075632;28;20221;-81
2023/05/08 12:52:14;;;;;;;0.30;0.30;;;;;;;;;;5074885;28;20925;-81
2023/05/08 12:54:41;;;;;;;0.30;0.30;;;;;;;;;;5075134;28;20220;-80
2023/05/08 12:57:10;;;;;;;0.30;0.30;;;;;;;;;;5075657;28;20626;-83
2023/05/08 12:59:36;;;;;;;0.30;0.30;;;;;;;;;;5075611;28;20193;-81
2023/05/08 13:02:02;;;;;;;0.30;0.30;;;;;;;;;;5075412;28;20713;-85
2023/05/08 13:04:29;;;;;;;0.40;0.40;;;;;;;;;;5076148;28;20195;-81
2023/05/08 13:06:56;;;;;;;0.33;0.33;;;;;;;;;;5091350;28;20182;-81
2023/05/08 13:09:22;;;;;;;0.30;0.30;;;;;;;;;;5096361;28;20213;-85
2023/05/08 13:11:48;;;;;;;0.40;0.40;;;;;;;;;;5086850;28;20186;-82
2023/05/08 13:14:14;;;;;;;0.30;0.30;;;;;;;;;;5074419;28;20194;-79
2023/05/08 13:16:44;;;;;;;0.40;0.40;;;;;;;;;;5074807;28;20659;-81
2023/05/08 13:19:10;;;;;;;0.37;0.37;;;;;;;;;;5075897;28;20184;-81
2023/05/08 13:21:36;;;;;;;0.40;0.40;;;;;;;;;;5076840;28;20553;-81
2023/05/08 13:24:02;;;;;;;0.33;0.33;;;;;;;;;;5076790;28;20195;-83
2023/05/08 13:26:28;;;;;;;0.30;0.30;;;;;;;;;;5076683;28;20178;-85
2023/05/08 13:28:54;;;;;;;0.30;0.30;;;;;;;;;;5075983;28;20224;-85
2023/05/08 13:31:20;;;;;;;0.40;0.40;;;;;;;;;;5078071;28;20174;-84
2023/05/08 13:33:46;;;;;;;0.30;0.30;;;;;;;;;;5077476;28;20289;-84
2023/05/08 13:36:12;;;;;;;0.40;0.40;;;;;;;;;;5076171;28;20560;-85
2023/05/08 13:38:38;;;;;;;0.33;0.33;;;;;;;;;;5077609;28;20171;-83
2023/05/08 13:41:04;;;;;;;0.40;0.40;;;;;;;;;;5082221;28;20163;-84
2023/05/08 13:43:30;;;;;;;0.37;0.37;;;;;;;;;;5081170;28;20633;-85
2023/05/08 13:45:56;;;;;;;0.40;0.40;;;;;;;;;;5082601;28;20186;-85
2023/05/08 13:48:22;;;;;;;0.30;0.30;;;;;;;;;;5082378;28;20236;-85
2023/05/08 13:50:48;;;;;;;0.40;0.40;;;;;;;;;;5084501;28;20201;-84
2023/05/08 13:53:14;;;;;;;0.30;0.30;;;;;;;;;;5086276;28;20174;-83
2023/05/08 13:55:41;;;;;;;0.30;0.30;;;;;;;;;;5085486;28;20180;-84
2023/05/08 13:58:07;;;;;;;0.30;0.30;;;;;;;;;;5086429;28;20185;-83
2023/05/08 14:00:33;;;;;;;0.40;0.40;;;;;;;;;;5086776;28;20178;-82
2023/05/08 14:02:59;;;;;;;0.30;0.30;;;;;;;;;;5086921;28;20224;-83
2023/05/08 14:05:25;;;;;;;0.30;0.30;;;;;;;;;;5088550;28;20545;-82
2023/05/08 14:07:51;;;;;;;0.40;0.40;;;;;;;;;;5087779;28;20178;-82
2023/05/08 14:10:17;;;;;;;0.30;0.30;;;;;;;;;;5087582;28;20177;-83
2023/05/08 14:12:43;;;;;;;0.30;0.30;;;;;;;;;;5088370;28;20186;-82
2023/05/08 14:15:10;;;;;;;0.30;0.30;;;;;;;;;;5088289;28;20209;-81
2023/05/08 14:17:36;;;;;;;0.40;0.40;;;;;;;;;;5087939;28;20529;-83
2023/05/08 14:20:02;;;;;;;0.30;0.30;;;;;;;;;;5088107;28;20185;-84
2023/05/08 14:22:28;;;;;;;0.30;0.30;;;;;;;;;;5087978;28;20198;-86
2023/05/08 14:24:54;;;;;;;0.30;0.30;;;;;;;;;;5083684;28;20195;-83
2023/05/08 14:27:20;;;;;;;0.30;0.30;;;;;;;;;;5101294;28;20535;-84
2023/05/08 14:29:47;;;;;;;0.33;0.33;;;;;;;;;;5105398;28;20224;-81
2023/05/08 14:32:13;;;;;;;0.30;0.30;;;;;;;;;;5106895;28;20162;-86
2023/05/08 14:34:39;;;;;;;0.30;0.30;;;;;;;;;;5117489;27;20213;-87
2023/05/08 14:37:05;;;;;;;0.37;0.37;;;;;;;;;;5104651;28;20182;-86
2023/05/08 14:39:31;;;;;;;0.37;0.37;;;;;;;;;;5103048;28;20287;-86
2023/05/08 14:41:57;;;;;;;0.33;0.33;;;;;;;;;;5106000;28;20194;-85
2023/05/08 14:44:22;;;;;;;0.30;0.30;;;;;;;;;;5105119;28;20662;-85
2023/05/08 14:46:49;;;;;;;0.30;0.30;;;;;;;;;;5103904;28;20200;-85